createdAt,value
2023-02-15T00:00:50.495Z,27.10
2023-02-15T00:03:40.774Z,26.73
2023-02-15T00:06:29.373Z,27.27
2023-02-15T00:09:18.404Z,25.17
2023-02-15T00:12:07.188Z,24.63
2023-02-15T00:14:55.794Z,23.77
2023-02-15T00:17:44.232Z,23.90
2023-02-15T00:20:34.200Z,24.23
2023-02-15T00:23:22.694Z,23.33
2023-02-15T00:26:13.052Z,22.85
2023-02-15T00:29:02.065Z,24.60
2023-02-15T00:31:51.014Z,26.13
2023-02-15T00:34:39.554Z,25.45
2023-02-15T00:37:29.537Z,21.45
2023-02-15T00:40:18.214Z,24.75
2023-02-15T00:43:06.771Z,26.90
2023-02-15T00:45:55.384Z,25.33
2023-02-15T00:48:44.038Z,24.17
2023-02-15T00:51:32.856Z,21.75
2023-02-15T00:54:22.977Z,21.60
2023-02-15T00:57:11.501Z,25.77
2023-02-15T01:00:00.099Z,22.77
2023-02-15T01:02:48.622Z,23.13
2023-02-15T01:05:37.155Z,23.60
2023-02-15T01:08:25.986Z,24.30
2023-02-15T01:11:22.962Z,24.67
2023-02-15T01:14:12.058Z,23.80
2023-02-15T01:17:00.639Z,23.80
2023-02-15T01:19:49.187Z,23.05
2023-02-15T01:22:37.688Z,20.85
2023-02-15T01:25:27.141Z,21.38
2023-02-15T01:28:17.168Z,20.73
2023-02-15T01:31:09.840Z,18.75
2023-02-15T01:33:58.312Z,18.80
2023-02-15T01:36:46.870Z,18.77
2023-02-15T01:39:35.265Z,21.83
2023-02-15T01:42:24.683Z,20.80
2023-02-15T01:45:22.944Z,20.55
2023-02-15T01:48:23.387Z,18.65
2023-02-15T01:51:12.178Z,18.95
2023-02-15T01:54:05.120Z,20.42
2023-02-15T01:56:54.641Z,20.13
2023-02-15T01:59:47.033Z,20.20
2023-02-15T02:02:37.676Z,19.65
2023-02-15T02:05:26.369Z,20.48
2023-02-15T02:08:15.120Z,20.77
2023-02-15T02:11:03.749Z,20.70
2023-02-15T02:13:53.575Z,20.90
2023-02-15T02:16:52.072Z,19.43
2023-02-15T02:20:08.677Z,17.90
2023-02-15T02:23:21.873Z,19.70
2023-02-15T02:26:47.256Z,19.30
2023-02-15T02:30:04.767Z,19.50
2023-02-15T02:33:19.346Z,18.55
2023-02-15T02:36:17.786Z,20.35
2023-02-15T02:39:16.240Z,18.02
2023-02-15T02:42:09.742Z,17.67
2023-02-15T02:45:04.456Z,17.60
2023-02-15T02:47:57.911Z,17.52
2023-02-15T02:50:47.884Z,16.38
2023-02-15T02:53:36.916Z,17.45
2023-02-15T02:56:30.552Z,16.25
2023-02-15T02:59:22.913Z,17.05
2023-02-15T03:02:15.931Z,16.33
2023-02-15T03:05:09.682Z,16.20
2023-02-15T03:08:02.104Z,16.27
2023-02-15T03:10:53.824Z,16.27
2023-02-15T03:13:43.230Z,16.07
2023-02-15T03:16:32.116Z,15.85
2023-02-15T03:19:26.002Z,16.27
2023-02-15T03:22:20.519Z,15.82
2023-02-15T03:25:14.415Z,16.02
2023-02-15T03:28:08.786Z,16.45
2023-02-15T03:31:02.152Z,17.33
2023-02-15T03:33:56.876Z,15.85
2023-02-15T03:36:50.067Z,15.80
2023-02-15T03:39:42.196Z,16.25
2023-02-15T03:42:35.144Z,17.43
2023-02-15T03:45:29.207Z,15.60
2023-02-15T03:48:18.117Z,16.77
2023-02-15T03:51:27.647Z,15.73
2023-02-15T03:54:39.458Z,15.25
2023-02-15T03:57:47.869Z,15.68
2023-02-15T04:00:57.213Z,15.23
2023-02-15T04:03:51.957Z,15.95
2023-02-15T04:06:40.465Z,15.27
2023-02-15T04:09:46.171Z,15.93
2023-02-15T04:12:34.675Z,15.05
2023-02-15T04:15:40.322Z,13.65
2023-02-15T04:18:47.910Z,16.15
2023-02-15T04:21:53.878Z,16.23
2023-02-15T04:24:59.586Z,14.98
2023-02-15T04:27:50.956Z,14.68
2023-02-15T04:30:39.544Z,14.95
2023-02-15T04:33:29.417Z,17.13
2023-02-15T04:36:18.026Z,16.45
2023-02-15T04:39:07.260Z,14.73
2023-02-15T04:41:55.810Z,15.10
2023-02-15T04:44:44.530Z,14.20
2023-02-15T04:47:33.239Z,14.50
2023-02-15T04:50:23.206Z,14.57
2023-02-15T04:53:12.389Z,15.00
2023-02-15T04:56:01.159Z,13.80
2023-02-15T04:58:50.411Z,12.65
2023-02-15T05:01:38.918Z,12.47
2023-02-15T05:04:27.413Z,12.65
2023-02-15T05:07:17.498Z,11.50
2023-02-15T05:10:06.770Z,12.63
2023-02-15T05:12:55.350Z,12.27
2023-02-15T05:15:44.962Z,11.63
2023-02-15T05:18:33.721Z,10.68
2023-02-15T05:21:22.287Z,10.00
2023-02-15T05:24:26.140Z,11.20
2023-02-15T05:27:32.091Z,12.67
2023-02-15T05:30:20.867Z,12.35
2023-02-15T05:33:09.990Z,11.77
2023-02-15T05:35:58.455Z,13.65
2023-02-15T05:38:47.073Z,11.05
2023-02-15T05:41:37.032Z,13.35
2023-02-15T05:44:25.609Z,13.52
2023-02-15T05:47:14.242Z,12.27
2023-02-15T05:50:02.816Z,14.45
2023-02-15T05:52:52.514Z,12.95
2023-02-15T05:55:41.455Z,11.68
2023-02-15T05:58:34.216Z,12.10
2023-02-15T06:01:23.930Z,11.05
2023-02-15T06:04:12.661Z,13.63
2023-02-15T06:07:01.167Z,13.15
2023-02-15T06:09:49.629Z,12.60
2023-02-15T06:12:38.160Z,12.40
2023-02-15T06:15:28.192Z,11.82
2023-02-15T06:18:16.715Z,12.95
2023-02-15T06:21:05.270Z,13.77
2023-02-15T06:23:53.749Z,12.98
2023-02-15T06:26:42.315Z,13.35
2023-02-15T06:29:30.885Z,12.80
2023-02-15T06:32:20.920Z,13.17
2023-02-15T06:35:10.077Z,13.43
2023-02-15T06:37:58.676Z,12.18
2023-02-15T06:40:47.279Z,13.80
2023-02-15T06:43:35.989Z,12.43
2023-02-15T06:46:24.545Z,14.02
2023-02-15T06:49:14.588Z,13.98
2023-02-15T06:52:03.360Z,14.63
2023-02-15T06:54:51.869Z,14.48
2023-02-15T06:57:40.491Z,13.50
2023-02-15T07:00:29.109Z,13.73
2023-02-15T07:03:17.625Z,13.27
2023-02-15T07:06:09.527Z,14.70
2023-02-15T07:08:58.057Z,12.87
2023-02-15T07:12:03.899Z,12.05
2023-02-15T07:14:52.703Z,13.52
2023-02-15T07:17:41.272Z,11.30
2023-02-15T07:20:30.042Z,12.15
2023-02-15T07:23:19.994Z,10.52
2023-02-15T07:26:09.973Z,10.85
2023-02-15T07:28:58.490Z,10.95
2023-02-15T07:31:46.988Z,11.13
2023-02-15T07:34:35.500Z,11.50
2023-02-15T07:37:24.258Z,11.57
2023-02-15T07:40:14.573Z,10.52
2023-02-15T07:43:03.156Z,9.73
2023-02-15T07:45:51.780Z,10.10
2023-02-15T07:48:41.600Z,9.00
2023-02-15T07:51:30.130Z,8.15
2023-02-15T07:54:19.016Z,8.88
2023-02-15T07:57:08.959Z,7.82
2023-02-15T07:59:57.456Z,7.78
2023-02-15T08:03:10.499Z,7.93
2023-02-15T08:06:01.150Z,7.32
2023-02-15T08:08:49.982Z,7.35
2023-02-15T08:11:40.849Z,8.27
2023-02-15T08:14:30.816Z,7.43
2023-02-15T08:17:19.299Z,7.30
2023-02-15T08:20:09.581Z,6.80
2023-02-15T08:22:58.212Z,7.90
2023-02-15T08:25:46.752Z,11.52
2023-02-15T08:28:35.209Z,11.25
2023-02-15T08:31:25.425Z,11.68
2023-02-15T08:34:17.106Z,9.67
2023-02-15T08:37:06.980Z,11.63
2023-02-15T08:39:55.768Z,11.17
2023-02-15T08:42:44.373Z,11.03
2023-02-15T08:45:32.914Z,14.47
2023-02-15T08:48:22.943Z,17.80
2023-02-15T08:51:13.246Z,19.87
2023-02-15T08:54:04.692Z,23.00
2023-02-15T08:56:53.508Z,24.87
2023-02-15T08:59:42.063Z,26.77
2023-02-15T09:02:30.699Z,24.85
2023-02-15T09:05:20.740Z,25.70
2023-02-15T09:08:09.225Z,25.40
2023-02-15T09:11:08.042Z,27.52
2023-02-15T09:13:58.611Z,27.57
2023-02-15T09:16:49.885Z,26.10
2023-02-15T09:19:38.548Z,27.87
2023-02-15T09:22:28.643Z,25.00
2023-02-15T09:25:17.273Z,26.60
2023-02-15T09:28:05.916Z,28.03
2023-02-15T09:30:55.153Z,27.40
2023-02-15T09:33:44.813Z,28.43
2023-02-15T09:36:34.765Z,26.15
2023-02-15T09:39:25.984Z,31.25
2023-02-15T09:42:44.180Z,31.03
2023-02-15T09:45:54.897Z,31.70
2023-02-15T09:48:46.234Z,33.37
2023-02-15T09:52:04.633Z,33.33
2023-02-15T09:55:11.076Z,29.63
2023-02-15T09:58:09.068Z,29.33
2023-02-15T10:01:06.330Z,26.50
2023-02-15T10:04:12.208Z,29.23
2023-02-15T10:07:12.842Z,27.23
2023-02-15T10:10:18.945Z,24.00
2023-02-15T10:13:26.784Z,23.85
2023-02-15T10:16:24.771Z,23.77
2023-02-15T10:19:20.184Z,23.33
2023-02-15T10:22:23.280Z,21.50
2023-02-15T10:25:32.856Z,19.27
2023-02-15T10:28:24.789Z,19.17
2023-02-15T10:31:24.546Z,21.40
2023-02-15T10:34:19.995Z,19.42
2023-02-15T10:37:44.844Z,19.15
2023-02-15T10:40:44.319Z,20.10
2023-02-15T10:43:46.292Z,19.60
2023-02-15T10:46:51.355Z,19.88
2023-02-15T10:50:03.526Z,21.25
2023-02-15T10:53:06.124Z,23.33
2023-02-15T10:56:04.898Z,21.65
2023-02-15T10:59:09.953Z,19.55
2023-02-15T11:02:04.473Z,19.83
2023-02-15T11:05:04.557Z,19.13
2023-02-15T11:07:56.241Z,18.52
2023-02-15T11:10:48.628Z,18.90
2023-02-15T11:13:42.148Z,19.70
2023-02-15T11:16:34.332Z,19.20
2023-02-15T11:19:26.265Z,19.10
2023-02-15T11:22:17.104Z,17.48
2023-02-15T11:25:19.507Z,18.65
2023-02-15T11:28:20.300Z,18.83
2023-02-15T11:31:19.649Z,18.35
2023-02-15T11:34:15.461Z,19.00
2023-02-15T11:37:07.340Z,20.50
2023-02-15T11:39:57.777Z,20.33
2023-02-15T11:42:47.359Z,21.02
2023-02-15T11:45:37.139Z,18.67
2023-02-15T11:48:27.141Z,20.95
2023-02-15T11:51:21.614Z,23.40
2023-02-15T11:54:12.161Z,19.52
2023-02-15T11:57:05.849Z,18.60
2023-02-15T12:00:00.456Z,20.60
2023-02-15T12:02:55.465Z,20.63
2023-02-15T12:05:49.238Z,19.92
2023-02-15T12:08:41.668Z,21.85
2023-02-15T12:11:35.666Z,23.77
2023-02-15T12:14:24.340Z,21.77
2023-02-15T12:17:16.262Z,22.42
2023-02-15T12:20:07.080Z,20.57
2023-02-15T12:23:04.097Z,22.08
2023-02-15T12:25:55.675Z,26.52
2023-02-15T12:28:46.814Z,22.30
2023-02-15T12:31:41.219Z,19.05
2023-02-15T12:34:32.876Z,20.63
2023-02-15T12:37:25.146Z,21.33
2023-02-15T12:40:26.800Z,20.60
2023-02-15T12:43:28.049Z,26.45
2023-02-15T12:46:27.485Z,24.33
2023-02-15T12:49:21.124Z,21.75
2023-02-15T12:52:27.344Z,20.85
2023-02-15T12:55:26.502Z,19.10
2023-02-15T12:58:19.504Z,19.20
2023-02-15T13:01:16.539Z,19.73
2023-02-15T13:04:08.194Z,20.23
2023-02-15T13:07:01.112Z,18.15
2023-02-15T13:09:50.294Z,17.77
2023-02-15T13:12:40.419Z,18.02
2023-02-15T13:15:34.928Z,17.15
2023-02-15T13:18:32.781Z,17.38
2023-02-15T13:21:25.853Z,17.02
2023-02-15T13:24:22.345Z,17.23
2023-02-15T13:27:16.492Z,18.30
2023-02-15T13:30:20.580Z,16.85
2023-02-15T13:33:16.510Z,18.17
2023-02-15T13:36:15.669Z,18.15
2023-02-15T13:39:19.950Z,21.70
2023-02-15T13:42:22.154Z,18.40
2023-02-15T13:45:27.534Z,24.42
2023-02-15T13:48:23.094Z,21.85
2023-02-15T13:51:17.979Z,19.47
2023-02-15T13:54:35.176Z,16.88
2023-02-15T13:57:55.377Z,19.23
2023-02-15T14:00:51.135Z,15.63
2023-02-15T14:04:01.570Z,16.80
2023-02-15T14:07:07.938Z,19.05
2023-02-15T14:10:14.728Z,16.75
2023-02-15T14:13:38.915Z,18.48
2023-02-15T14:16:38.277Z,23.13
2023-02-15T14:19:31.763Z,19.60
2023-02-15T14:22:28.046Z,19.20
2023-02-15T14:25:22.504Z,18.87
2023-02-15T14:28:16.922Z,18.70
2023-02-15T14:31:08.005Z,25.25
2023-02-15T14:33:59.830Z,20.33
2023-02-15T14:36:48.940Z,20.05
2023-02-15T14:40:02.067Z,27.02
2023-02-15T14:42:54.671Z,19.85
2023-02-15T14:45:45.398Z,23.60
2023-02-15T14:48:40.356Z,24.80
2023-02-15T14:51:59.927Z,21.25
2023-02-15T14:55:00.101Z,21.95
2023-02-15T14:58:00.764Z,26.33
2023-02-15T15:00:49.311Z,20.17
2023-02-15T15:03:38.658Z,18.45
2023-02-15T15:06:29.481Z,19.67
2023-02-15T15:09:24.778Z,22.50
2023-02-15T15:12:21.742Z,21.92
2023-02-15T15:15:15.014Z,19.80
2023-02-15T15:18:06.249Z,22.33
2023-02-15T15:20:54.797Z,21.35
2023-02-15T15:23:47.092Z,17.88
2023-02-15T15:26:41.750Z,18.13
2023-02-15T15:29:42.197Z,19.07
2023-02-15T15:32:34.103Z,20.70
2023-02-15T15:35:30.254Z,21.13
2023-02-15T15:38:34.225Z,16.08
2023-02-15T15:41:34.373Z,23.58
2023-02-15T15:44:51.749Z,23.52
2023-02-15T15:48:14.430Z,23.23
2023-02-15T15:51:07.724Z,21.42
2023-02-15T15:53:57.087Z,21.73
2023-02-15T15:56:49.828Z,22.08
2023-02-15T15:59:46.950Z,22.45
2023-02-15T16:02:35.389Z,20.73
2023-02-15T16:05:24.060Z,21.40
2023-02-15T16:08:12.525Z,18.10
2023-02-15T16:11:02.456Z,19.10
2023-02-15T16:13:51.091Z,18.75
2023-02-15T16:16:41.464Z,15.50
2023-02-15T16:19:32.208Z,14.90
2023-02-15T16:22:23.838Z,14.10
2023-02-15T16:25:32.361Z,16.30
2023-02-15T16:28:21.265Z,17.75
2023-02-15T16:31:14.479Z,16.40
2023-02-15T16:34:18.241Z,16.75
2023-02-15T16:37:17.595Z,17.90
2023-02-15T16:40:07.300Z,21.50
2023-02-15T16:43:01.576Z,20.23
2023-02-15T16:45:50.382Z,22.23
2023-02-15T16:48:43.978Z,18.83
2023-02-15T16:51:36.266Z,17.15
2023-02-15T16:54:26.456Z,16.98
2023-02-15T16:57:21.970Z,17.25
2023-02-15T17:00:21.689Z,16.85
2023-02-15T17:03:24.193Z,16.70
2023-02-15T17:06:23.712Z,17.77
2023-02-15T17:09:20.670Z,16.90
2023-02-15T17:12:11.638Z,18.30
2023-02-15T17:15:00.175Z,17.55
2023-02-15T17:17:50.071Z,18.00
2023-02-15T17:20:42.783Z,17.52
2023-02-15T17:23:33.559Z,17.45
2023-02-15T17:26:26.383Z,20.75
2023-02-15T17:29:24.866Z,21.98
2023-02-15T17:32:20.832Z,20.02
2023-02-15T17:35:21.302Z,19.25
2023-02-15T17:38:20.658Z,20.23
2023-02-15T17:41:09.870Z,18.50
2023-02-15T17:44:00.059Z,19.15
2023-02-15T17:46:48.601Z,23.50
2023-02-15T17:49:38.096Z,23.02
2023-02-15T17:52:30.490Z,20.45
2023-02-15T17:55:38.509Z,20.95
2023-02-15T17:58:27.171Z,21.67
2023-02-15T18:01:38.134Z,20.85
2023-02-15T18:04:44.051Z,22.52
2023-02-15T18:07:49.986Z,24.02
2023-02-15T18:10:55.816Z,23.77
2023-02-15T18:13:44.579Z,24.77
2023-02-15T18:16:36.503Z,20.75
2023-02-15T18:19:27.175Z,18.95
2023-02-15T18:22:18.736Z,18.55
2023-02-15T18:25:10.916Z,18.80
2023-02-15T18:27:59.455Z,17.83
2023-02-15T18:30:48.331Z,18.95
2023-02-15T18:33:41.365Z,20.23
2023-02-15T18:36:33.262Z,26.90
2023-02-15T18:39:28.046Z,25.13
2023-02-15T18:42:22.211Z,22.67
2023-02-15T18:45:16.991Z,26.30
2023-02-15T18:48:08.339Z,23.70
2023-02-15T18:50:58.329Z,22.33
2023-02-15T18:53:47.976Z,22.55
2023-02-15T18:56:36.652Z,31.67
2023-02-15T18:59:26.260Z,34.17
2023-02-15T19:02:15.395Z,26.98
2023-02-15T19:05:04.175Z,27.02
2023-02-15T19:07:54.274Z,29.80
2023-02-15T19:10:43.090Z,24.02
2023-02-15T19:13:31.965Z,31.77
2023-02-15T19:16:29.505Z,31.55
2023-02-15T19:19:18.029Z,25.58
2023-02-15T19:22:06.589Z,33.33
2023-02-15T19:24:58.627Z,26.40
2023-02-15T19:27:47.473Z,27.25
2023-02-15T19:30:36.007Z,32.45
2023-02-15T19:33:24.480Z,32.45
2023-02-15T19:36:18.615Z,31.25
2023-02-15T19:39:07.228Z,31.83
2023-02-15T19:41:57.243Z,29.95
2023-02-15T19:44:45.793Z,25.98
2023-02-15T19:47:34.378Z,31.17
2023-02-15T19:50:25.591Z,25.67
2023-02-15T19:53:23.675Z,31.80
2023-02-15T19:56:14.150Z,28.85
2023-02-15T19:59:04.666Z,32.65
2023-02-15T20:01:53.656Z,34.23
2023-02-15T20:04:42.424Z,33.95
2023-02-15T20:07:30.987Z,29.40
2023-02-15T20:10:21.419Z,28.53
2023-02-15T20:13:15.534Z,32.28
2023-02-15T20:16:08.234Z,28.92
2023-02-15T20:18:56.719Z,29.00
2023-02-15T20:21:51.687Z,28.05
2023-02-15T20:24:40.229Z,26.50
2023-02-15T20:27:28.915Z,27.42
2023-02-15T20:30:19.810Z,26.75
2023-02-15T20:33:09.748Z,27.67
2023-02-15T20:35:59.724Z,26.98
2023-02-15T20:38:49.014Z,27.97
2023-02-15T20:41:37.657Z,26.88
2023-02-15T20:44:29.044Z,29.60
2023-02-15T20:47:17.531Z,27.55
2023-02-15T20:50:08.418Z,24.67
2023-02-15T20:52:58.967Z,25.77
2023-02-15T20:55:48.011Z,26.00
2023-02-15T20:58:36.802Z,24.85
2023-02-15T21:01:25.593Z,29.25
2023-02-15T21:04:18.980Z,27.25
2023-02-15T21:07:12.031Z,26.83
2023-02-15T21:10:01.080Z,32.10
2023-02-15T21:12:50.758Z,29.48
2023-02-15T21:15:40.431Z,27.93
2023-02-15T21:18:31.091Z,26.08
2023-02-15T21:21:23.717Z,26.60
2023-02-15T21:24:16.913Z,25.45
2023-02-15T21:27:07.681Z,24.83
2023-02-15T21:29:56.402Z,25.33
2023-02-15T21:32:44.918Z,21.52
2023-02-15T21:35:33.536Z,22.13
2023-02-15T21:38:24.866Z,24.95
2023-02-15T21:41:35.360Z,19.05
2023-02-15T21:44:42.608Z,22.25
2023-02-15T21:47:50.259Z,22.15
2023-02-15T21:50:56.700Z,19.70
2023-02-15T21:53:47.595Z,19.10
2023-02-15T21:56:37.479Z,18.02
2023-02-15T21:59:28.257Z,20.70
2023-02-15T22:02:28.031Z,19.13
2023-02-15T22:05:19.036Z,17.88
2023-02-15T22:08:14.050Z,17.47
2023-02-15T22:11:02.960Z,15.00
2023-02-15T22:13:53.232Z,14.60
2023-02-15T22:16:41.903Z,16.23
2023-02-15T22:19:30.814Z,14.90
2023-02-15T22:22:19.650Z,14.20
2023-02-15T22:25:08.639Z,15.43
2023-02-15T22:27:57.184Z,14.40
2023-02-15T22:30:47.110Z,18.00
2023-02-15T22:33:36.089Z,16.98
2023-02-15T22:36:26.744Z,16.42
2023-02-15T22:39:15.272Z,14.57
2023-02-15T22:42:04.150Z,13.95
2023-02-15T22:44:54.640Z,13.27
2023-02-15T22:47:44.814Z,11.93
2023-02-15T22:50:35.884Z,14.15
2023-02-15T22:53:26.100Z,11.93
2023-02-15T22:56:20.229Z,11.93
2023-02-15T22:59:15.460Z,13.55
2023-02-15T23:02:06.482Z,13.23
2023-02-15T23:04:56.573Z,12.77
2023-02-15T23:07:45.219Z,12.23
2023-02-15T23:10:33.777Z,13.50
2023-02-15T23:13:26.302Z,15.93
2023-02-15T23:16:17.433Z,18.88
2023-02-15T23:19:07.763Z,15.82
2023-02-15T23:21:57.676Z,14.02
2023-02-15T23:24:49.840Z,14.77
2023-02-15T23:27:55.754Z,13.98
2023-02-15T23:30:44.322Z,13.32
2023-02-15T23:33:35.334Z,13.20
2023-02-15T23:36:27.376Z,14.33
2023-02-15T23:39:36.873Z,14.90
2023-02-15T23:42:28.988Z,13.85
2023-02-15T23:45:23.726Z,12.73
2023-02-15T23:48:33.453Z,13.10
2023-02-15T23:51:23.032Z,13.02
2023-02-15T23:54:11.934Z,12.98
2023-02-15T23:57:03.124Z,14.40
2023-02-15T23:59:51.721Z,13.20
